Time;durP1;ratioP1;P1;durP2;ratioP2;P2;SDS_P1;SDS_P2;PMS_P1;PMS_P2;Temp;Humidity;BMP_temperature;BMP_pressure;BME280_temperature;BME280_humidity;BME280_pressure;Samples;Min_cycle;Max_cycle;Signal;HPM_P1;HPM_P2
2023/03/06 00:02:23;;;;;;;;;;;5.90;99.90;;;;;;7341386;19;108543;-91
2023/03/06 00:04:50;;;;;;;;;;;5.80;99.90;;;;;;7342502;19;112172;-91
2023/03/06 00:07:17;;;;;;;;;;;5.80;99.90;;;;;;7339088;19;110826;-90
2023/03/06 00:09:44;;;;;;;;;;;5.80;99.90;;;;;;7340362;19;108443;-89
2023/03/06 00:12:11;;;;;;;;;;;5.80;99.90;;;;;;7347744;19;109762;-90
2023/03/06 00:14:38;;;;;;;;;;;5.80;99.90;;;;;;7340358;19;108283;-90
2023/03/06 00:17:05;;;;;;;;;;;5.80;99.90;;;;;;7340266;19;111572;-91
2023/03/06 00:19:31;;;;;;;;;;;5.80;99.90;;;;;;7340577;19;109799;-91
2023/03/06 00:21:58;;;;;;;;;;;5.80;99.90;;;;;;7344096;19;109604;-91
2023/03/06 00:24:25;;;;;;;;;;;5.80;99.90;;;;;;7340401;19;110594;-91
2023/03/06 00:26:52;;;;;;;;;;;5.80;99.90;;;;;;7344848;19;108493;-91
2023/03/06 00:29:19;;;;;;;;;;;5.80;99.90;;;;;;7341245;19;111546;-91
2023/03/06 00:31:46;;;;;;;;;;;5.80;99.90;;;;;;7341885;19;110810;-91
2023/03/06 00:34:14;;;;;;;;;;;5.80;99.90;;;;;;7345131;19;108398;-91
2023/03/06 00:36:41;;;;;;;;;;;5.80;99.90;;;;;;7339777;19;110209;-90
2023/03/06 00:39:08;;;;;;;;;;;5.80;99.90;;;;;;7344331;19;109277;-91
2023/03/06 00:41:35;;;;;;;;;;;5.80;99.90;;;;;;7337098;19;109852;-91
2023/03/06 00:44:02;;;;;;;;;;;5.80;99.90;;;;;;7345344;19;112499;-90
2023/03/06 00:46:29;;;;;;;;;;;5.80;99.90;;;;;;7340985;19;108652;-91
2023/03/06 00:48:56;;;;;;;;;;;5.80;99.90;;;;;;7344365;19;109499;-91
2023/03/06 00:51:22;;;;;;;;;;;5.80;99.90;;;;;;7342933;19;110216;-91
2023/03/06 00:53:49;;;;;;;;;;;5.80;99.90;;;;;;7342805;19;109518;-91
2023/03/06 00:56:17;;;;;;;;;;;5.80;99.90;;;;;;7345894;19;109826;-91
2023/03/06 00:58:45;;;;;;;;;;;5.80;99.90;;;;;;7341593;19;109657;-91
2023/03/06 01:01:12;;;;;;;;;;;5.90;99.90;;;;;;7342633;19;110012;-91
2023/03/06 01:03:39;;;;;;;;;;;5.90;99.90;;;;;;7337038;19;110410;-90
2023/03/06 01:06:06;;;;;;;;;;;5.90;99.90;;;;;;7343553;19;109091;-89
2023/03/06 01:08:33;;;;;;;;;;;5.90;99.90;;;;;;7348721;19;110749;-90
2023/03/06 01:11:00;;;;;;;;;;;5.80;99.90;;;;;;7347273;19;111003;-90
2023/03/06 01:13:27;;;;;;;;;;;5.80;99.90;;;;;;7344798;19;108572;-89
2023/03/06 01:15:54;;;;;;;;;;;5.70;99.90;;;;;;7345948;19;110129;-89
2023/03/06 01:18:21;;;;;;;;;;;5.70;99.90;;;;;;7349282;19;111523;-89
2023/03/06 01:20:48;;;;;;;;;;;5.70;99.90;;;;;;7343425;19;108620;-90
2023/03/06 01:23:15;;;;;;;;;;;5.60;99.90;;;;;;7348950;19;109210;-90
2023/03/06 01:25:42;;;;;;;;;;;5.60;99.90;;;;;;7348422;19;108727;-90
2023/03/06 01:28:09;;;;;;;;;;;5.60;99.90;;;;;;7348583;19;108843;-90
2023/03/06 01:30:36;;;;;;;;;;;5.60;99.90;;;;;;7343059;19;110081;-90
2023/03/06 01:33:03;;;;;;;;;;;5.60;99.90;;;;;;7343004;19;112247;-91
2023/03/06 01:35:30;;;;;;;;;;;5.60;99.90;;;;;;7346278;19;109232;-90
2023/03/06 01:37:57;;;;;;;;;;;5.60;99.90;;;;;;7344797;19;110201;-90
2023/03/06 01:40:23;;;;;;;;;;;5.60;99.90;;;;;;7348614;19;108545;-90
2023/03/06 01:42:50;;;;;;;;;;;5.60;99.90;;;;;;7348399;19;112803;-91
2023/03/06 01:45:17;;;;;;;;;;;5.60;99.90;;;;;;7347843;19;109281;-90
2023/03/06 01:47:44;;;;;;;;;;;5.60;99.90;;;;;;7347588;19;110860;-91
2023/03/06 01:50:11;;;;;;;;;;;5.60;99.90;;;;;;7346764;19;110315;-91
2023/03/06 01:52:42;;;;;;;;;;;5.60;99.90;;;;;;7345964;19;108504;-90
2023/03/06 01:55:12;;;;;;;;;;;5.60;99.90;;;;;;7342525;19;111694;-91
2023/03/06 01:57:47;;;;;;;;;;;5.60;99.90;;;;;;7346067;19;108379;-90
2023/03/06 02:00:15;;;;;;;;;;;5.50;99.90;;;;;;7352326;19;108825;-91
2023/03/06 02:02:44;;;;;;;;;;;5.50;99.90;;;;;;7343009;19;110481;-90
2023/03/06 02:05:11;;;;;;;;;;;5.50;99.90;;;;;;7345245;19;108748;-91
2023/03/06 02:07:38;;;;;;;;;;;5.60;99.90;;;;;;7344765;19;108662;-91
2023/03/06 02:10:05;;;;;;;;;;;5.60;99.90;;;;;;7347098;19;109629;-91
2023/03/06 02:12:32;;;;;;;;;;;5.50;99.90;;;;;;7347623;19;109953;-91
2023/03/06 02:14:59;;;;;;;;;;;5.50;99.90;;;;;;7343837;19;110621;-91
2023/03/06 02:17:28;;;;;;;;;;;5.50;99.90;;;;;;7343725;19;112845;-91
2023/03/06 02:20:00;;;;;;;;;;;5.50;99.90;;;;;;7346297;19;110075;-91
2023/03/06 02:22:39;;;;;;;;;;;5.50;99.90;;;;;;7352025;19;109528;-90
2023/03/06 02:25:12;;;;;;;;;;;5.60;99.90;;;;;;7345821;19;109330;-91
2023/03/06 02:27:39;;;;;;;;;;;5.60;99.90;;;;;;7348342;19;111641;-90
2023/03/06 02:30:07;;;;;;;;;;;5.60;99.90;;;;;;7347923;19;109720;-91
2023/03/06 02:32:34;;;;;;;;;;;5.60;99.90;;;;;;7346146;19;109667;-90
2023/03/06 02:35:02;;;;;;;;;;;5.50;99.90;;;;;;7347280;19;108838;-89
2023/03/06 02:37:29;;;;;;;;;;;5.50;99.90;;;;;;7344412;19;110632;-90
2023/03/06 02:39:59;;;;;;;;;;;5.60;99.90;;;;;;7343115;19;109566;-90
2023/03/06 02:42:30;;;;;;;;;;;5.50;99.90;;;;;;7341828;19;109581;-91
2023/03/06 02:44:58;;;;;;;;;;;5.50;99.90;;;;;;7351895;19;110105;-90
2023/03/06 02:47:25;;;;;;;;;;;5.50;99.90;;;;;;7340009;19;111181;-90
2023/03/06 02:49:52;;;;;;;;;;;5.50;99.90;;;;;;7345211;19;110273;-90
2023/03/06 02:52:19;;;;;;;;;;;5.50;99.90;;;;;;7343310;19;108963;-90
2023/03/06 02:54:45;;;;;;;;;;;5.50;99.90;;;;;;7343724;19;108508;-90
2023/03/06 02:57:12;;;;;;;;;;;5.40;99.90;;;;;;7342737;19;111130;-90
2023/03/06 02:59:39;;;;;;;;;;;5.40;99.90;;;;;;7344661;19;109374;-91
2023/03/06 03:02:06;;;;;;;;;;;5.40;99.90;;;;;;7343411;19;108744;-90
2023/03/06 03:04:33;;;;;;;;;;;5.40;99.90;;;;;;7340933;19;110046;-91
2023/03/06 03:07:00;;;;;;;;;;;5.40;99.90;;;;;;7349028;19;109242;-90
2023/03/06 03:09:27;;;;;;;;;;;5.40;99.90;;;;;;7344529;19;109066;-90
2023/03/06 03:11:54;;;;;;;;;;;5.40;99.90;;;;;;7345571;19;109114;-90
2023/03/06 03:14:23;;;;;;;;;;;5.40;99.90;;;;;;7342213;19;112124;-90
2023/03/06 03:16:50;;;;;;;;;;;5.40;99.90;;;;;;7343917;19;113580;-90
2023/03/06 03:19:18;;;;;;;;;;;5.30;99.90;;;;;;7346285;19;108487;-90
2023/03/06 03:21:45;;;;;;;;;;;5.30;99.90;;;;;;7343549;19;110699;-91
2023/03/06 03:24:12;;;;;;;;;;;5.30;99.90;;;;;;7343307;19;110287;-90
2023/03/06 03:26:39;;;;;;;;;;;5.30;99.90;;;;;;7342157;19;108986;-91
2023/03/06 03:29:05;;;;;;;;;;;5.20;99.90;;;;;;7349852;19;109675;-90
2023/03/06 03:31:33;;;;;;;;;;;5.20;99.90;;;;;;7344339;19;108847;-90
2023/03/06 03:34:00;;;;;;;;;;;5.20;99.90;;;;;;7343667;19;109023;-90
2023/03/06 03:36:27;;;;;;;;;;;5.20;99.90;;;;;;7343869;19;110264;-91
2023/03/06 03:38:55;;;;;;;;;;;5.10;99.90;;;;;;7342165;19;110038;-91
2023/03/06 03:41:22;;;;;;;;;;;5.10;99.90;;;;;;7343534;19;109105;-91
2023/03/06 03:43:49;;;;;;;;;;;5.10;99.90;;;;;;7338699;19;109665;-90
2023/03/06 03:46:16;;;;;;;;;;;5.00;99.90;;;;;;7346543;19;108651;-90
2023/03/06 03:48:43;;;;;;;;;;;5.00;99.90;;;;;;7344200;19;108380;-91
2023/03/06 03:51:11;;;;;;;;;;;5.00;99.90;;;;;;7348470;19;111066;-92
2023/03/06 03:53:38;;;;;;;;;;;4.90;99.90;;;;;;7343254;19;109974;-92
2023/03/06 03:56:05;;;;;;;;;;;4.90;99.90;;;;;;7344307;19;109780;-90
2023/03/06 03:58:32;;;;;;;;;;;4.90;99.90;;;;;;7341681;19;108329;-87
2023/03/06 04:00:59;;;;;;;;;;;4.90;99.90;;;;;;7333520;19;109812;-87
2023/03/06 04:03:26;;;;;;;;;;;4.80;99.90;;;;;;7335945;19;112614;-87
2023/03/06 04:05:54;;;;;;;;;;;4.80;99.90;;;;;;7337474;19;110251;-87
2023/03/06 04:08:21;;;;;;;;;;;4.70;99.90;;;;;;7335813;19;111756;-88
2023/03/06 04:10:49;;;;;;;;;;;4.70;99.90;;;;;;7343360;19;110345;-87
2023/03/06 04:13:18;;;;;;;;;;;4.60;99.90;;;;;;7338261;19;110738;-88
2023/03/06 04:15:45;;;;;;;;;;;4.60;99.90;;;;;;7339148;19;110388;-88
2023/03/06 04:18:15;;;;;;;;;;;4.50;99.90;;;;;;7337331;19;108460;-87
2023/03/06 04:20:43;;;;;;;;;;;4.50;99.90;;;;;;7335805;19;108792;-88
2023/03/06 04:23:10;;;;;;;;;;;4.50;99.90;;;;;;7336763;19;109467;-87
2023/03/06 04:25:37;;;;;;;;;;;4.40;99.90;;;;;;7335250;19;108961;-85
2023/03/06 04:28:04;;;;;;;;;;;4.40;99.90;;;;;;7338024;19;110764;-87
2023/03/06 04:30:32;;;;;;;;;;;4.40;99.90;;;;;;7336915;19;112060;-87
2023/03/06 04:32:59;;;;;;;;;;;4.30;99.90;;;;;;7341523;19;108750;-87
2023/03/06 04:35:26;;;;;;;;;;;4.30;99.90;;;;;;7332690;19;109734;-88
2023/03/06 04:37:53;;;;;;;;;;;4.30;99.90;;;;;;7337076;19;109178;-87
2023/03/06 04:40:22;;;;;;;;;;;4.20;99.90;;;;;;7336250;19;108432;-87
2023/03/06 04:42:49;;;;;;;;;;;4.20;99.90;;;;;;7341298;19;110230;-88
2023/03/06 04:45:16;;;;;;;;;;;4.20;99.90;;;;;;7344165;19;108991;-88
2023/03/06 04:47:43;;;;;;;;;;;4.10;99.90;;;;;;7338340;19;110927;-87
2023/03/06 04:50:10;;;;;;;;;;;4.10;99.90;;;;;;7346701;19;111572;-87
2023/03/06 04:52:39;;;;;;;;;;;4.10;99.90;;;;;;7340944;19;109988;-87
2023/03/06 04:55:07;;;;;;;;;;;4.10;99.90;;;;;;7349265;19;111038;-88
2023/03/06 04:57:38;;;;;;;;;;;4.10;99.90;;;;;;7342287;19;109512;-87
2023/03/06 05:00:11;;;;;;;;;;;4.10;99.90;;;;;;7344352;19;112135;-88
2023/03/06 05:02:37;;;;;;;;;;;4.10;99.90;;;;;;7342383;19;109538;-88
2023/03/06 05:05:04;;;;;;;;;;;4.10;99.90;;;;;;7345134;19;109370;-87
2023/03/06 05:07:31;;;;;;;;;;;4.20;99.90;;;;;;7345486;19;109602;-87
2023/03/06 05:09:59;;;;;;;;;;;4.20;99.90;;;;;;7340001;19;110235;-87
2023/03/06 05:12:26;;;;;;;;;;;4.20;99.90;;;;;;7340861;19;109022;-87
2023/03/06 05:14:53;;;;;;;;;;;4.30;99.90;;;;;;7340718;19;108929;-87
2023/03/06 05:17:20;;;;;;;;;;;4.30;99.90;;;;;;7348273;19;110662;-88
2023/03/06 05:19:47;;;;;;;;;;;4.30;99.90;;;;;;7341247;19;111660;-87
2023/03/06 05:22:14;;;;;;;;;;;4.30;99.90;;;;;;7343101;19;110111;-87
2023/03/06 05:24:40;;;;;;;;;;;4.30;99.90;;;;;;7344416;19;108702;-87
2023/03/06 05:27:07;;;;;;;;;;;4.30;99.90;;;;;;7342289;19;109228;-88
2023/03/06 05:29:35;;;;;;;;;;;4.30;99.90;;;;;;7344089;19;111203;-88
2023/03/06 05:32:01;;;;;;;;;;;4.30;99.90;;;;;;7340584;19;109220;-86
2023/03/06 05:34:28;;;;;;;;;;;4.30;99.90;;;;;;7343263;19;110495;-86
2023/03/06 05:36:55;;;;;;;;;;;4.30;99.90;;;;;;7342017;19;110245;-88
2023/03/06 05:39:22;;;;;;;;;;;4.30;99.90;;;;;;7348329;19;108278;-87
2023/03/06 05:41:49;;;;;;;;;;;4.30;99.90;;;;;;7338052;19;109366;-88
2023/03/06 05:44:16;;;;;;;;;;;4.30;99.90;;;;;;7342526;19;109895;-87
2023/03/06 05:46:43;;;;;;;;;;;4.30;99.90;;;;;;7338792;19;109156;-87
2023/03/06 05:49:10;;;;;;;;;;;4.30;99.90;;;;;;7341239;19;111354;-87
2023/03/06 05:51:37;;;;;;;;;;;4.30;99.90;;;;;;7344634;19;108484;-87
2023/03/06 05:54:04;;;;;;;;;;;4.30;99.90;;;;;;7336889;19;109511;-87
2023/03/06 05:56:31;;;;;;;;;;;4.30;99.90;;;;;;7339412;19;110889;-87
2023/03/06 05:58:58;;;;;;;;;;;4.30;99.90;;;;;;7342382;19;110291;-87
2023/03/06 06:01:27;;;;;;;;;;;4.40;99.90;;;;;;7346843;19;110186;-87
2023/03/06 06:03:54;;;;;;;;;;;4.40;99.90;;;;;;7342041;19;108348;-88
2023/03/06 06:06:21;;;;;;;;;;;4.30;99.90;;;;;;7342849;19;108698;-87
2023/03/06 06:08:48;;;;;;;;;;;4.40;99.90;;;;;;7339024;19;112802;-87
2023/03/06 06:11:17;;;;;;;;;;;4.30;99.90;;;;;;7336817;19;108651;-87
2023/03/06 06:13:44;;;;;;;;;;;4.30;99.90;;;;;;7342344;19;108995;-89
2023/03/06 06:16:12;;;;;;;;;;;4.30;99.90;;;;;;7340470;19;109340;-89
2023/03/06 06:18:39;;;;;;;;;;;4.30;99.90;;;;;;7338120;19;111366;-88
2023/03/06 06:21:08;;;;;;;;;;;4.30;99.90;;;;;;7345426;19;108906;-89
2023/03/06 06:23:35;;;;;;;;;;;4.30;99.90;;;;;;7342255;19;108906;-87
2023/03/06 06:26:03;;;;;;;;;;;4.30;99.90;;;;;;7342254;19;111722;-87
2023/03/06 06:28:30;;;;;;;;;;;4.30;99.90;;;;;;7342333;19;112821;-88
2023/03/06 06:30:57;;;;;;;;;;;4.30;99.90;;;;;;7345793;19;108477;-89
2023/03/06 06:33:24;;;;;;;;;;;4.30;99.90;;;;;;7343287;19;109477;-88
2023/03/06 06:35:52;;;;;;;;;;;4.30;99.90;;;;;;7338424;19;110676;-88
2023/03/06 06:38:19;;;;;;;;;;;4.30;99.90;;;;;;7341905;19;108446;-88
2023/03/06 06:40:46;;;;;;;;;;;4.30;99.90;;;;;;7337599;19;109920;-88
2023/03/06 06:43:32;;;;;;;;;;;4.30;99.90;;;;;;7343523;19;111561;-87
2023/03/06 06:45:59;;;;;;;;;;;4.30;99.90;;;;;;7340366;19;111966;-91
2023/03/06 06:48:48;;;;;;;;;;;4.30;99.90;;;;;;7339665;19;112161;-88
2023/03/06 06:51:15;;;;;;;;;;;4.30;99.90;;;;;;7340315;19;109905;-88
2023/03/06 06:53:43;;;;;;;;;;;4.30;99.90;;;;;;7339755;19;109601;-87
2023/03/06 06:56:10;;;;;;;;;;;4.30;99.90;;;;;;7338992;19;112674;-88
2023/03/06 06:58:37;;;;;;;;;;;4.30;99.90;;;;;;7339440;19;109815;-89
2023/03/06 07:01:08;;;;;;;;;;;4.40;99.90;;;;;;7339254;19;108662;-86
2023/03/06 07:03:36;;;;;;;;;;;4.30;99.90;;;;;;7335017;19;109596;-87
2023/03/06 07:06:03;;;;;;;;;;;4.30;99.90;;;;;;7345331;19;108674;-86
2023/03/06 07:08:30;;;;;;;;;;;4.30;99.90;;;;;;7331973;19;112243;-88
2023/03/06 07:10:57;;;;;;;;;;;4.40;99.90;;;;;;7337111;19;109180;-87
2023/03/06 07:13:24;;;;;;;;;;;4.40;99.90;;;;;;7341218;19;109995;-87
2023/03/06 07:15:51;;;;;;;;;;;4.40;99.90;;;;;;7340297;19;113418;-87
2023/03/06 07:18:18;;;;;;;;;;;4.40;99.90;;;;;;7338203;19;108902;-86
2023/03/06 07:20:45;;;;;;;;;;;4.40;99.90;;;;;;7337921;19;112629;-88
2023/03/06 07:23:12;;;;;;;;;;;4.40;99.90;;;;;;7338463;19;111661;-87
2023/03/06 07:25:39;;;;;;;;;;;4.50;99.90;;;;;;7337541;19;108895;-86
2023/03/06 07:28:06;;;;;;;;;;;4.50;99.90;;;;;;7342429;19;108689;-87
2023/03/06 07:30:33;;;;;;;;;;;4.50;99.90;;;;;;7339042;19;109050;-86
2023/03/06 07:33:00;;;;;;;;;;;4.60;99.90;;;;;;7338232;19;110718;-87
2023/03/06 07:35:27;;;;;;;;;;;4.60;99.90;;;;;;7338759;19;110120;-87
2023/03/06 07:37:54;;;;;;;;;;;4.60;99.90;;;;;;7339443;19;108808;-87
2023/03/06 07:40:22;;;;;;;;;;;4.70;99.90;;;;;;7339081;19;108670;-87
2023/03/06 07:42:51;;;;;;;;;;;4.70;99.90;;;;;;7339203;19;110091;-86
2023/03/06 07:45:18;;;;;;;;;;;4.70;99.90;;;;;;7337692;19;108623;-88
2023/03/06 07:47:45;;;;;;;;;;;4.80;99.90;;;;;;7337521;19;109282;-86
2023/03/06 07:50:12;;;;;;;;;;;4.90;99.90;;;;;;7344262;19;109666;-87
2023/03/06 07:52:39;;;;;;;;;;;4.90;99.90;;;;;;7336548;19;108981;-87
2023/03/06 07:55:06;;;;;;;;;;;4.90;99.90;;;;;;7339799;19;110321;-87
2023/03/06 07:57:33;;;;;;;;;;;4.90;99.90;;;;;;7336092;19;108694;-88
2023/03/06 08:00:00;;;;;;;;;;;5.00;99.90;;;;;;7336843;19;110487;-87
2023/03/06 08:02:27;;;;;;;;;;;5.00;99.90;;;;;;7338392;19;110501;-87
2023/03/06 08:04:54;;;;;;;;;;;5.10;99.90;;;;;;7341082;19;108935;-87
2023/03/06 08:07:21;;;;;;;;;;;5.10;99.90;;;;;;7340196;19;109219;-87
2023/03/06 08:09:48;;;;;;;;;;;5.10;99.90;;;;;;7336978;19;112836;-87
2023/03/06 08:12:15;;;;;;;;;;;5.20;99.90;;;;;;7341136;19;108721;-87
2023/03/06 08:14:42;;;;;;;;;;;5.10;99.90;;;;;;7336296;19;109488;-87
2023/03/06 08:17:09;;;;;;;;;;;5.10;99.90;;;;;;7335655;19;108405;-87
2023/03/06 08:19:36;;;;;;;;;;;5.20;99.90;;;;;;7336636;19;110067;-88
2023/03/06 08:22:04;;;;;;;;;;;5.20;99.90;;;;;;7337386;19;110174;-87
2023/03/06 08:24:34;;;;;;;;;;;5.20;99.90;;;;;;7335625;19;109220;-89
2023/03/06 08:27:01;;;;;;;;;;;5.30;99.90;;;;;;7338305;19;108172;-87
2023/03/06 08:29:28;;;;;;;;;;;5.30;99.90;;;;;;7335605;19;113079;-87
2023/03/06 08:31:57;;;;;;;;;;;5.30;99.90;;;;;;7344451;19;109024;-89
2023/03/06 08:34:25;;;;;;;;;;;5.30;99.90;;;;;;7336941;19;110257;-89
2023/03/06 08:36:51;;;;;;;;;;;5.30;99.90;;;;;;7339087;19;109266;-88
2023/03/06 08:39:19;;;;;;;;;;;5.40;99.90;;;;;;7335258;19;111021;-88
2023/03/06 08:41:46;;;;;;;;;;;5.40;99.90;;;;;;7333697;19;110337;-88
2023/03/06 08:44:13;;;;;;;;;;;5.40;99.90;;;;;;7315330;19;110239;-87
2023/03/06 08:46:40;;;;;;;;;;;5.40;99.90;;;;;;7336920;19;112355;-87
2023/03/06 08:49:08;;;;;;;;;;;5.40;99.90;;;;;;7335188;19;111176;-87
2023/03/06 08:51:35;;;;;;;;;;;5.50;99.90;;;;;;7340222;19;108487;-87
2023/03/06 08:54:02;;;;;;;;;;;5.40;99.90;;;;;;7344573;19;111570;-88
2023/03/06 08:56:31;;;;;;;;;;;5.50;99.90;;;;;;7341439;19;109004;-88
2023/03/06 08:58:59;;;;;;;;;;;5.50;99.90;;;;;;7338769;19;109479;-88
2023/03/06 09:01:28;;;;;;;;;;;5.50;99.90;;;;;;7336900;19;112104;-87
2023/03/06 09:03:56;;;;;;;;;;;5.50;99.90;;;;;;7336648;19;108472;-87
2023/03/06 09:06:24;;;;;;;;;;;5.50;99.90;;;;;;7335879;19;108760;-87
2023/03/06 09:08:51;;;;;;;;;;;5.50;99.90;;;;;;7336941;19;112770;-88
2023/03/06 09:11:19;;;;;;;;;;;5.60;99.90;;;;;;7335883;19;108421;-88
2023/03/06 09:13:46;;;;;;;;;;;5.60;99.90;;;;;;7336081;19;109961;-88
2023/03/06 09:16:14;;;;;;;;;;;5.60;99.90;;;;;;7340327;19;109431;-89
2023/03/06 09:18:41;;;;;;;;;;;5.60;99.90;;;;;;7338845;19;109348;-88
2023/03/06 09:21:08;;;;;;;;;;;5.60;99.90;;;;;;7333039;19;110793;-88
2023/03/06 09:23:38;;;;;;;;;;;5.60;99.90;;;;;;7336022;19;108302;-88
2023/03/06 09:26:06;;;;;;;;;;;5.60;99.90;;;;;;7335775;19;108759;-88
2023/03/06 09:28:37;;;;;;;;;;;5.60;99.90;;;;;;7338789;19;110122;-87
2023/03/06 09:31:11;;;;;;;;;;;5.60;99.90;;;;;;7343243;19;108581;-88
2023/03/06 09:33:39;;;;;;;;;;;5.70;99.90;;;;;;7339782;19;108811;-87
2023/03/06 09:36:07;;;;;;;;;;;5.60;99.90;;;;;;7341771;19;109811;-88
2023/03/06 09:38:33;;;;;;;;;;;5.70;99.90;;;;;;7344299;19;108783;-88
2023/03/06 09:41:19;;;;;;;;;;;5.70;99.90;;;;;;7343344;19;111738;-86
2023/03/06 09:43:47;;;;;;;;;;;5.60;99.90;;;;;;7342324;19;108429;-87
2023/03/06 09:46:28;;;;;;;;;;;5.70;99.90;;;;;;7342383;19;109408;-88
2023/03/06 09:48:55;;;;;;;;;;;5.70;99.90;;;;;;7343993;19;109458;-87
2023/03/06 09:51:26;;;;;;;;;;;5.70;99.90;;;;;;7339983;19;108380;-88
2023/03/06 09:54:01;;;;;;;;;;;5.80;99.90;;;;;;7342128;19;109078;-87
2023/03/06 09:56:30;;;;;;;;;;;5.80;99.90;;;;;;7340376;19;110962;-87
2023/03/06 09:59:17;;;;;;;;;;;5.90;99.90;;;;;;7340534;19;108314;-87
2023/03/06 10:02:08;;;;;;;;;;;5.90;99.90;;;;;;7345732;19;109250;-87
2023/03/06 10:04:40;;;;;;;;;;;5.90;99.90;;;;;;7341370;19;108907;-87
2023/03/06 10:07:11;;;;;;;;;;;5.90;99.90;;;;;;7341819;19;108786;-87
2023/03/06 10:09:57;;;;;;;;;;;6.00;99.90;;;;;;7341926;19;109708;-88
2023/03/06 10:12:30;;;;;;;;;;;6.00;99.90;;;;;;7340849;19;108998;-87
2023/03/06 10:14:57;;;;;;;;;;;6.00;99.90;;;;;;7340867;19;109693;-88
2023/03/06 10:17:25;;;;;;;;;;;6.10;99.90;;;;;;7341375;19;111400;-87
2023/03/06 10:19:52;;;;;;;;;;;6.10;99.90;;;;;;7339773;19;108482;-87
2023/03/06 10:22:29;;;;;;;;;;;6.10;99.90;;;;;;7348553;19;108919;-87
2023/03/06 10:25:18;;;;;;;;;;;6.10;99.90;;;;;;7344031;19;109587;-87
2023/03/06 10:27:47;;;;;;;;;;;6.10;99.90;;;;;;7343874;19;109186;-87
2023/03/06 10:30:24;;;;;;;;;;;6.10;99.90;;;;;;7341560;19;109815;-87
2023/03/06 10:32:54;;;;;;;;;;;6.10;99.90;;;;;;7340928;19;108546;-87
2023/03/06 10:35:24;;;;;;;;;;;6.20;99.90;;;;;;7340265;19;109200;-87
2023/03/06 10:37:57;;;;;;;;;;;6.20;99.90;;;;;;7340810;19;109651;-87
2023/03/06 10:40:29;;;;;;;;;;;6.20;99.90;;;;;;7338651;19;109157;-86
2023/03/06 10:42:56;;;;;;;;;;;6.20;99.90;;;;;;7341154;19;108303;-87
2023/03/06 10:45:50;;;;;;;;;;;6.20;99.90;;;;;;7345439;19;112990;-87
2023/03/06 10:48:19;;;;;;;;;;;6.20;99.90;;;;;;7340342;19;109267;-87
2023/03/06 10:50:46;;;;;;;;;;;6.30;99.90;;;;;;7340069;19;109973;-89
2023/03/06 10:53:22;;;;;;;;;;;6.30;99.90;;;;;;7339913;19;109305;-88
2023/03/06 10:55:51;;;;;;;;;;;6.30;99.90;;;;;;7342967;19;108745;-88
2023/03/06 10:58:21;;;;;;;;;;;6.30;99.90;;;;;;7339661;19;109588;-87
2023/03/06 11:01:10;;;;;;;;;;;6.40;99.90;;;;;;7342088;19;108366;-86
2023/03/06 11:03:37;;;;;;;;;;;6.50;99.90;;;;;;7338965;19;110632;-86
2023/03/06 11:06:11;;;;;;;;;;;6.60;99.90;;;;;;7340548;19;108987;-87
2023/03/06 11:08:40;;;;;;;;;;;6.60;99.90;;;;;;7344744;19;108613;-87
2023/03/06 11:11:09;;;;;;;;;;;6.70;99.90;;;;;;7342284;19;113306;-87
2023/03/06 11:13:38;;;;;;;;;;;6.80;99.90;;;;;;7339992;19;108794;-87
2023/03/06 11:16:08;;;;;;;;;;;6.90;99.90;;;;;;7341207;19;108654;-88
2023/03/06 11:18:40;;;;;;;;;;;7.00;99.90;;;;;;7340437;19;111147;-88
2023/03/06 11:21:26;;;;;;;;;;;7.10;99.90;;;;;;7339391;19;108751;-87
2023/03/06 11:23:59;;;;;;;;;;;7.30;99.90;;;;;;7339961;19;112715;-88
2023/03/06 11:26:29;;;;;;;;;;;7.30;99.90;;;;;;7340563;19;113275;-88
2023/03/06 11:29:01;;;;;;;;;;;7.40;99.90;;;;;;7340801;19;109193;-88
2023/03/06 11:31:32;;;;;;;;;;;7.50;99.90;;;;;;7344809;19;109485;-88
2023/03/06 11:34:20;;;;;;;;;;;7.50;99.90;;;;;;7341630;19;108419;-88
2023/03/06 11:36:52;;;;;;;;;;;7.60;99.90;;;;;;7338423;19;108556;-88
2023/03/06 11:39:30;;;;;;;;;;;7.70;99.90;;;;;;7338435;19;108983;-87
2023/03/06 11:42:04;;;;;;;;;;;7.80;99.90;;;;;;7339245;19;108672;-89
2023/03/06 11:44:33;;;;;;;;;;;7.90;99.90;;;;;;7340353;19;111265;-87
2023/03/06 11:47:03;;;;;;;;;;;7.90;99.90;;;;;;7337381;19;111033;-88
2023/03/06 11:49:33;;;;;;;;;;;8.00;99.90;;;;;;7339811;19;108994;-88
2023/03/06 11:52:08;;;;;;;;;;;8.10;99.90;;;;;;7338431;19;111510;-87
2023/03/06 11:54:35;;;;;;;;;;;8.20;99.90;;;;;;7344209;19;111334;-89
2023/03/06 11:57:11;;;;;;;;;;;8.20;99.90;;;;;;7339324;19;108677;-89
2023/03/06 11:59:55;;;;;;;;;;;8.30;99.90;;;;;;7337789;19;110715;-88
2023/03/06 12:02:42;;;;;;;;;;;8.40;99.90;;;;;;7336080;19;108900;-87
2023/03/06 12:05:32;;;;;;;;;;;8.60;99.90;;;;;;7334438;19;109801;-88
2023/03/06 12:08:02;;;;;;;;;;;8.70;99.90;;;;;;7334051;19;111579;-88
2023/03/06 12:10:44;;;;;;;;;;;8.70;99.90;;;;;;7335160;19;109419;-88
2023/03/06 12:13:22;;;;;;;;;;;8.70;99.90;;;;;;7338126;19;108487;-88
2023/03/06 12:16:12;;;;;;;;;;;8.70;99.90;;;;;;7333994;19;110263;-88
2023/03/06 12:18:51;;;;;;;;;;;8.70;99.90;;;;;;7343267;19;108874;-88
2023/03/06 12:21:47;;;;;;;;;;;8.70;99.90;;;;;;7335309;19;110467;-88
2023/03/06 12:24:29;;;;;;;;;;;8.60;99.90;;;;;;7334061;19;109557;-88
2023/03/06 12:27:08;;;;;;;;;;;8.60;99.90;;;;;;7334455;19;110830;-88
2023/03/06 12:29:40;;;;;;;;;;;8.60;99.90;;;;;;7335113;19;111015;-88
2023/03/06 12:32:20;;;;;;;;;;;8.60;99.90;;;;;;7333982;19;108358;-88
2023/03/06 12:34:58;;;;;;;;;;;8.70;99.90;;;;;;7330948;19;108541;-89
2023/03/06 12:37:41;;;;;;;;;;;8.70;99.90;;;;;;7338782;19;110553;-88
2023/03/06 12:40:30;;;;;;;;;;;8.70;99.90;;;;;;7340000;19;108613;-88
2023/03/06 12:43:17;;;;;;;;;;;8.80;99.90;;;;;;7333487;19;111734;-89
2023/03/06 12:45:45;;;;;;;;;;;8.90;99.90;;;;;;7334975;19;108506;-90
2023/03/06 12:48:23;;;;;;;;;;;9.00;99.90;;;;;;7337627;19;108785;-89
2023/03/06 12:50:50;;;;;;;;;;;9.00;99.90;;;;;;7333601;19;110104;-89
2023/03/06 12:53:28;;;;;;;;;;;9.10;99.90;;;;;;7334859;19;108451;-89
2023/03/06 12:55:56;;;;;;;;;;;9.00;99.90;;;;;;7335785;19;109601;-89
2023/03/06 12:58:29;;;;;;;;;;;9.00;99.90;;;;;;7334254;19;114056;-89
2023/03/06 13:00:56;;;;;;;;;;;8.90;99.90;;;;;;7335125;19;109992;-88
2023/03/06 13:03:47;;;;;;;;;;;8.80;99.90;;;;;;7346770;19;111341;-89
2023/03/06 13:06:17;;;;;;;;;;;8.80;99.90;;;;;;7346905;19;108877;-89
2023/03/06 13:08:49;;;;;;;;;;;8.90;99.90;;;;;;7345120;19;108678;-89
2023/03/06 13:11:29;;;;;;;;;;;8.90;99.90;;;;;;7347257;19;109496;-89
2023/03/06 13:13:56;;;;;;;;;;;8.90;99.90;;;;;;7347156;19;108265;-89
2023/03/06 13:16:26;;;;;;;;;;;9.00;99.90;;;;;;7342078;19;108669;-89
2023/03/06 13:18:56;;;;;;;;;;;9.00;99.90;;;;;;7346850;19;109931;-89
2023/03/06 13:21:43;;;;;;;;;;;9.10;99.90;;;;;;7344804;19;108398;-89
2023/03/06 13:24:16;;;;;;;;;;;9.10;99.90;;;;;;7343515;19;110983;-89
2023/03/06 13:26:43;;;;;;;;;;;9.10;99.90;;;;;;7350445;19;111206;-90
2023/03/06 13:29:28;;;;;;;;;;;9.10;99.90;;;;;;7344795;19;109739;-90
2023/03/06 13:32:01;;;;;;;;;;;9.20;99.90;;;;;;7342097;19;110212;-89
2023/03/06 13:34:34;;;;;;;;;;;9.30;99.90;;;;;;7343972;19;108636;-89
2023/03/06 13:37:22;;;;;;;;;;;9.40;99.90;;;;;;7345236;19;108683;-88
2023/03/06 13:39:58;;;;;;;;;;;9.40;99.90;;;;;;7340175;19;109501;-91
2023/03/06 13:42:35;;;;;;;;;;;9.60;99.90;;;;;;7347308;19;108450;-90
2023/03/06 13:45:21;;;;;;;;;;;9.80;99.90;;;;;;7349840;19;108233;-90
2023/03/06 13:47:49;;;;;;;;;;;9.90;99.90;;;;;;7351855;19;111698;-90
2023/03/06 13:50:41;;;;;;;;;;;9.90;99.90;;;;;;7355501;19;108875;-91
2023/03/06 13:53:08;;;;;;;;;;;10.00;99.90;;;;;;7347286;19;109224;-91
2023/03/06 13:55:44;;;;;;;;;;;9.80;99.90;;;;;;7348009;19;109073;-90
2023/03/06 13:58:11;;;;;;;;;;;9.80;99.90;;;;;;7351616;19;108796;-91
2023/03/06 14:00:38;;;;;;;;;;;9.70;99.90;;;;;;7347471;19;110388;-91
2023/03/06 14:03:17;;;;;;;;;;;9.70;99.90;;;;;;7352600;19;108849;-89
2023/03/06 14:05:48;;;;;;;;;;;9.60;99.90;;;;;;7352995;19;111589;-90
2023/03/06 14:08:15;;;;;;;;;;;9.50;99.90;;;;;;7349085;19;112102;-89
2023/03/06 14:10:43;;;;;;;;;;;9.50;99.90;;;;;;7346287;19;108164;-89
2023/03/06 14:13:25;;;;;;;;;;;9.50;99.90;;;;;;7353848;19;108453;-89
2023/03/06 14:16:01;;;;;;;;;;;9.50;99.90;;;;;;7350894;19;108642;-90
2023/03/06 14:18:31;;;;;;;;;;;9.40;99.90;;;;;;7350513;19;108917;-89
2023/03/06 14:21:02;;;;;;;;;;;9.50;99.90;;;;;;7351653;19;113147;-89
2023/03/06 14:23:31;;;;;;;;;;;9.40;99.90;;;;;;7349778;19;110193;-89
2023/03/06 14:26:16;;;;;;;;;;;9.30;99.90;;;;;;7348398;19;108739;-89
2023/03/06 14:28:44;;;;;;;;;;;9.30;99.90;;;;;;7347668;19;110510;-89
2023/03/06 14:31:31;;;;;;;;;;;9.30;99.90;;;;;;7348546;19;110388;-88
2023/03/06 14:34:14;;;;;;;;;;;9.30;99.90;;;;;;7351086;19;108355;-90